Calipatria, California
Current Conditions -  °F | °C
As of 2:53 AM on Monday 20 Oct 2014 (Local Time) from KIPL Reporting Station
Clear Clear  
Wind Chill: 72°   Ceiling: Unl
Heat Index: 72°   Visibility: 10mi
Dew Point: 51°   Wind: 0mph
Humidity: 48%   Direction: NA
Pressure: 29.76"   Gusts: NA
Location:  33.13°N, 115.51°W
Report Text: KIPL 200953Z AUTO 00000KT 10SM CLR 22/11 A2976 RMK AO2 SLP078 T02220106
Loading
Personal Weather Stations






























Interactive Weather Map
Tropical Storm Tracking
New forecast layout! Learn more

10-Day Weather Forecast

Advertisements
Track Severe Weather on mobile